Time;durP1;ratioP1;P1;durP2;ratioP2;P2;SDS_P1;SDS_P2;PMS_P1;PMS_P2;Temp;Humidity;BMP_temperature;BMP_pressure;BME280_temperature;BME280_humidity;BME280_pressure;Samples;Min_cycle;Max_cycle;Signal;HPM_P1;HPM_P2
2021/12/19 00:09:49;;;;;;;6.27;3.43;;;;;;;;;;4971227;28;20577;-74
2021/12/19 00:12:14;;;;;;;7.50;3.90;;;;;;;;;;4971410;28;20038;-74
2021/12/19 00:14:40;;;;;;;6.60;4.20;;;;;;;;;;4971600;28;20030;-74
2021/12/19 00:17:06;;;;;;;9.37;4.20;;;;;;;;;;4969694;28;20023;-74
2021/12/19 00:19:32;;;;;;;8.50;4.17;;;;;;;;;;4971377;28;20076;-73
2021/12/19 00:21:57;;;;;;;7.33;3.43;;;;;;;;;;4971326;28;20034;-74
2021/12/19 00:24:24;;;;;;;8.67;4.00;;;;;;;;;;4969961;28;20434;-74
2021/12/19 00:26:50;;;;;;;6.97;3.77;;;;;;;;;;4969778;28;20110;-74
2021/12/19 00:29:15;;;;;;;8.17;3.80;;;;;;;;;;4970452;28;20177;-72
2021/12/19 00:31:43;;;;;;;5.10;3.27;;;;;;;;;;4971165;28;20038;-74
2021/12/19 00:34:08;;;;;;;8.50;3.53;;;;;;;;;;4969934;28;20023;-75
2021/12/19 00:36:34;;;;;;;6.30;3.90;;;;;;;;;;4970150;28;20114;-74
2021/12/19 00:39:00;;;;;;;9.27;3.67;;;;;;;;;;4974801;28;20518;-74
2021/12/19 00:41:25;;;;;;;6.70;3.30;;;;;;;;;;4975527;28;20117;-73
2021/12/19 00:43:55;;;;;;;6.40;3.63;;;;;;;;;;4974997;28;20030;-73
2021/12/19 00:46:24;;;;;;;6.23;3.33;;;;;;;;;;4975112;28;20027;-74
2021/12/19 00:48:52;;;;;;;5.37;3.13;;;;;;;;;;4973314;28;20019;-74
2021/12/19 00:51:23;;;;;;;6.23;3.03;;;;;;;;;;4974908;28;20023;-73
2021/12/19 00:53:49;;;;;;;6.53;3.30;;;;;;;;;;4973320;28;20026;-74
2021/12/19 00:56:15;;;;;;;4.30;3.00;;;;;;;;;;4973455;28;20098;-73
2021/12/19 00:58:42;;;;;;;6.93;3.40;;;;;;;;;;4975134;28;20027;-74
2021/12/19 01:01:08;;;;;;;5.43;3.33;;;;;;;;;;4975043;28;20035;-74
2021/12/19 01:03:34;;;;;;;5.37;3.33;;;;;;;;;;4974861;28;20031;-73
2021/12/19 01:06:00;;;;;;;5.27;3.40;;;;;;;;;;4973439;28;20031;-74
2021/12/19 01:08:26;;;;;;;7.30;4.17;;;;;;;;;;4973272;28;20073;-74
2021/12/19 01:10:52;;;;;;;7.87;4.50;;;;;;;;;;4974575;28;20027;-74
2021/12/19 01:13:18;;;;;;;5.53;3.40;;;;;;;;;;4974651;28;20038;-74
2021/12/19 01:15:45;;;;;;;6.97;3.30;;;;;;;;;;4974582;28;20097;-74
2021/12/19 01:18:11;;;;;;;5.57;3.50;;;;;;;;;;4973116;28;20490;-73
2021/12/19 01:20:39;;;;;;;4.87;2.90;;;;;;;;;;4974471;28;20026;-74
2021/12/19 01:23:05;;;;;;;7.37;3.70;;;;;;;;;;4989251;28;20034;-75
2021/12/19 01:25:31;;;;;;;7.73;3.27;;;;;;;;;;4972905;28;20117;-73
2021/12/19 01:27:57;;;;;;;5.30;3.20;;;;;;;;;;4972284;28;20089;-73
2021/12/19 01:30:23;;;;;;;8.23;3.30;;;;;;;;;;4974175;28;20027;-74
2021/12/19 01:32:49;;;;;;;6.07;3.03;;;;;;;;;;4974215;28;20027;-74
2021/12/19 01:35:18;;;;;;;6.47;3.23;;;;;;;;;;4974216;28;20029;-74
2021/12/19 01:37:45;;;;;;;5.10;2.53;;;;;;;;;;4974078;28;20027;-74
2021/12/19 01:40:13;;;;;;;6.43;3.70;;;;;;;;;;4973763;28;20110;-73
2021/12/19 01:42:43;;;;;;;5.60;3.40;;;;;;;;;;4972753;28;20082;-73
2021/12/19 01:45:12;;;;;;;7.03;3.07;;;;;;;;;;4974189;28;20027;-73
2021/12/19 01:47:38;;;;;;;5.67;2.77;;;;;;;;;;4973814;28;20035;-74
2021/12/19 01:50:07;;;;;;;3.87;2.80;;;;;;;;;;4972364;28;20038;-73
2021/12/19 01:52:32;;;;;;;6.20;3.17;;;;;;;;;;4974105;28;20463;-74
2021/12/19 01:54:58;;;;;;;4.10;3.20;;;;;;;;;;4973767;28;20113;-74
2021/12/19 01:57:25;;;;;;;4.77;2.93;;;;;;;;;;4972757;28;20110;-74
2021/12/19 01:59:55;;;;;;;7.23;3.10;;;;;;;;;;4972593;28;20022;-74
2021/12/19 02:02:20;;;;;;;5.23;2.73;;;;;;;;;;4972736;28;20109;-75
2021/12/19 02:04:47;;;;;;;5.33;2.90;;;;;;;;;;4973961;28;20479;-73
2021/12/19 02:07:13;;;;;;;11.30;3.10;;;;;;;;;;4973715;28;20027;-74
2021/12/19 02:09:41;;;;;;;5.47;3.07;;;;;;;;;;4972345;28;20106;-73
2021/12/19 02:12:08;;;;;;;6.53;3.03;;;;;;;;;;4973703;28;20037;-73
2021/12/19 02:14:33;;;;;;;4.73;2.80;;;;;;;;;;4973434;28;20030;-74
2021/12/19 02:16:59;;;;;;;5.60;3.13;;;;;;;;;;4955897;28;20034;-74
2021/12/19 02:19:25;;;;;;;5.03;2.60;;;;;;;;;;4973727;28;20494;-73
2021/12/19 02:21:51;;;;;;;4.27;2.80;;;;;;;;;;4973040;28;20042;-74
2021/12/19 02:24:17;;;;;;;4.07;2.80;;;;;;;;;;4972001;28;20034;-73
2021/12/19 02:26:44;;;;;;;5.10;2.90;;;;;;;;;;4971896;28;20027;-73
2021/12/19 02:29:11;;;;;;;6.30;2.80;;;;;;;;;;4971823;28;20039;-73
2021/12/19 02:31:37;;;;;;;3.90;2.50;;;;;;;;;;4972434;28;20030;-73
2021/12/19 02:34:12;;;;;;;8.53;2.80;;;;;;;;;;4973002;28;20165;-74
2021/12/19 02:50:10;;;;;;;4.63;2.80;;;;;;;;;;4972870;28;20194;-73
2021/12/19 02:52:35;;;;;;;4.70;2.63;;;;;;;;;;4971534;28;20121;-74
2021/12/19 02:55:01;;;;;;;8.83;3.03;;;;;;;;;;4972538;28;20110;-73
2021/12/19 02:57:27;;;;;;;6.27;2.80;;;;;;;;;;4972943;28;20066;-74
2021/12/19 02:59:52;;;;;;;4.17;3.27;;;;;;;;;;4954729;28;20479;-74
2021/12/19 03:02:18;;;;;;;3.70;2.37;;;;;;;;;;4971670;28;20045;-73
2021/12/19 03:04:53;;;;;;;5.43;2.60;;;;;;;;;;4972895;28;20034;-73
2021/12/19 03:07:19;;;;;;;4.93;2.73;;;;;;;;;;4974181;28;20031;-72
2021/12/19 03:10:07;;;;;;;3.40;2.30;;;;;;;;;;4974109;28;20451;-74
2021/12/19 03:18:13;;;;;;;5.13;2.10;;;;;;;;;;4973436;28;20029;-74
2021/12/19 03:20:41;;;;;;;5.13;2.50;;;;;;;;;;4976338;28;20062;-73
2021/12/19 03:23:08;;;;;;;4.03;2.40;;;;;;;;;;4975953;28;20093;-73
2021/12/19 03:25:34;;;;;;;4.67;2.40;;;;;;;;;;4977018;28;20027;-74
2021/12/19 03:28:01;;;;;;;5.00;2.27;;;;;;;;;;4971443;28;20044;-74
2021/12/19 03:30:28;;;;;;;3.53;2.33;;;;;;;;;;4972098;28;20027;-73
2021/12/19 03:32:54;;;;;;;8.33;2.57;;;;;;;;;;4970570;28;20019;-74
2021/12/19 03:35:20;;;;;;;4.23;2.50;;;;;;;;;;4970800;28;20034;-74
2021/12/19 03:37:47;;;;;;;2.90;1.97;;;;;;;;;;4970900;28;20132;-75
2021/12/19 03:40:21;;;;;;;5.03;2.27;;;;;;;;;;4970852;28;20075;-73
2021/12/19 03:42:49;;;;;;;4.27;2.80;;;;;;;;;;4986297;28;20031;-74
2021/12/19 03:45:21;;;;;;;6.07;2.80;;;;;;;;;;4970563;28;20034;-74
2021/12/19 03:47:48;;;;;;;2.95;2.00;;;;;;;;;;4972229;28;20464;-74
2021/12/19 03:50:19;;;;;;;4.83;2.77;;;;;;;;;;4970458;28;20023;-74
2021/12/19 03:52:45;;;;;;;5.03;2.80;;;;;;;;;;4970985;28;20023;-74
2021/12/19 03:55:11;;;;;;;8.33;2.67;;;;;;;;;;4970061;28;20034;-74
2021/12/19 03:57:37;;;;;;;5.50;2.13;;;;;;;;;;4971779;28;20026;-73
2021/12/19 04:00:08;;;;;;;4.57;2.30;;;;;;;;;;4970206;28;20372;-75
2021/12/19 04:02:33;;;;;;;4.03;2.53;;;;;;;;;;4971854;28;20458;-74
2021/12/19 04:04:59;;;;;;;5.13;2.70;;;;;;;;;;4971779;28;20078;-74
2021/12/19 04:07:27;;;;;;;6.90;2.70;;;;;;;;;;4970177;28;20034;-74
2021/12/19 04:09:52;;;;;;;4.07;3.03;;;;;;;;;;4970503;28;20542;-73
2021/12/19 04:12:20;;;;;;;7.53;2.90;;;;;;;;;;4969970;28;20114;-74
2021/12/19 04:14:45;;;;;;;6.97;2.33;;;;;;;;;;4969928;28;20030;-74
2021/12/19 04:17:11;;;;;;;6.73;2.67;;;;;;;;;;4971195;28;20031;-73
2021/12/19 04:19:37;;;;;;;3.37;2.20;;;;;;;;;;4971593;28;20472;-74
2021/12/19 04:22:03;;;;;;;6.03;2.73;;;;;;;;;;4971391;28;20101;-74
2021/12/19 04:24:29;;;;;;;4.23;2.40;;;;;;;;;;4971513;28;20050;-74
2021/12/19 04:26:55;;;;;;;6.53;3.07;;;;;;;;;;4970452;28;20065;-73
2021/12/19 04:29:23;;;;;;;4.07;2.77;;;;;;;;;;4969981;28;20027;-73
2021/12/19 04:31:49;;;;;;;8.97;3.63;;;;;;;;;;4971561;28;20074;-74
2021/12/19 04:34:16;;;;;;;11.10;3.47;;;;;;;;;;4971358;28;20031;-74
2021/12/19 04:36:44;;;;;;;7.63;3.13;;;;;;;;;;4971257;28;20061;-74
2021/12/19 04:53:09;;;;;;;5.00;3.27;;;;;;;;;;4971931;28;20460;-73
2021/12/19 05:14:10;;;;;;;6.50;3.20;;;;;;;;;;4971168;28;20246;-74
2021/12/19 05:16:39;;;;;;;8.35;2.75;;;;;;;;;;4969581;28;20428;-74
2021/12/19 05:19:17;;;;;;;4.33;2.73;;;;;;;;;;4969512;28;20472;-74
2021/12/19 05:21:42;;;;;;;3.77;2.97;;;;;;;;;;4971026;28;20035;-73
2021/12/19 05:26:44;;;;;;;5.37;3.20;;;;;;;;;;4974251;28;20138;-74
2021/12/19 05:29:10;;;;;;;6.67;3.33;;;;;;;;;;4972443;28;20034;-74
2021/12/19 05:31:37;;;;;;;5.73;3.57;;;;;;;;;;4974315;28;20058;-73
2021/12/19 05:34:02;;;;;;;6.43;3.00;;;;;;;;;;4972570;28;20027;-72
2021/12/19 05:47:16;;;;;;;6.77;3.53;;;;;;;;;;4973798;28;20026;-74
2021/12/19 05:49:42;;;;;;;6.53;3.37;;;;;;;;;;4973961;28;20162;-74
2021/12/19 05:52:08;;;;;;;5.63;3.30;;;;;;;;;;4973519;28;20106;-73
2021/12/19 05:54:33;;;;;;;5.80;3.67;;;;;;;;;;4972359;28;20027;-73
2021/12/19 05:56:59;;;;;;;6.10;4.13;;;;;;;;;;4973320;28;20030;-74
2021/12/19 05:59:25;;;;;;;4.87;3.50;;;;;;;;;;4972119;28;20495;-73
2021/12/19 06:01:50;;;;;;;5.67;3.40;;;;;;;;;;4973334;28;20026;-74
2021/12/19 06:04:16;;;;;;;5.07;3.50;;;;;;;;;;4971797;28;20026;-74
2021/12/19 06:06:41;;;;;;;7.47;3.80;;;;;;;;;;4972155;28;20031;-74
2021/12/19 06:09:07;;;;;;;6.97;3.83;;;;;;;;;;4971754;28;20042;-73
2021/12/19 06:11:33;;;;;;;6.03;4.07;;;;;;;;;;4973340;28;20491;-73
2021/12/19 06:13:59;;;;;;;8.07;4.23;;;;;;;;;;4971924;28;20041;-74
2021/12/19 06:16:24;;;;;;;4.87;3.40;;;;;;;;;;4973180;28;20109;-74
2021/12/19 06:18:50;;;;;;;7.77;3.63;;;;;;;;;;4973268;28;20027;-73
2021/12/19 06:21:15;;;;;;;6.60;4.00;;;;;;;;;;4971635;28;20030;-74
2021/12/19 06:23:41;;;;;;;5.53;3.40;;;;;;;;;;4973227;28;20096;-73
2021/12/19 06:26:10;;;;;;;6.97;3.83;;;;;;;;;;4971570;28;20026;-74
2021/12/19 06:28:36;;;;;;;5.30;3.20;;;;;;;;;;4987891;28;20117;-74
2021/12/19 06:31:02;;;;;;;7.10;3.27;;;;;;;;;;4973142;28;20039;-73
2021/12/19 06:33:27;;;;;;;8.00;3.83;;;;;;;;;;4971667;28;20046;-74
2021/12/19 06:35:53;;;;;;;10.47;3.80;;;;;;;;;;4970651;28;20030;-73
2021/12/19 06:38:19;;;;;;;6.77;4.27;;;;;;;;;;4972801;28;20042;-74
2021/12/19 06:40:44;;;;;;;9.33;4.60;;;;;;;;;;4973055;28;20027;-74
2021/12/19 06:43:10;;;;;;;5.57;3.80;;;;;;;;;;4972507;28;20149;-74
2021/12/19 06:45:35;;;;;;;6.70;3.37;;;;;;;;;;4971509;28;20027;-74
2021/12/19 06:48:01;;;;;;;10.60;3.67;;;;;;;;;;4971484;28;20107;-75
2021/12/19 06:50:27;;;;;;;6.93;3.47;;;;;;;;;;4972474;28;20460;-74
2021/12/19 06:52:53;;;;;;;8.10;4.27;;;;;;;;;;4971382;28;20426;-74
2021/12/19 06:55:19;;;;;;;5.77;3.33;;;;;;;;;;4970974;28;20046;-73
2021/12/19 06:57:46;;;;;;;6.43;3.97;;;;;;;;;;4972261;28;20023;-73
2021/12/19 07:00:18;;;;;;;6.40;3.57;;;;;;;;;;4972333;28;20383;-74
2021/12/19 07:02:45;;;;;;;4.13;3.13;;;;;;;;;;4972913;28;20022;-76
2021/12/19 07:05:11;;;;;;;6.33;3.33;;;;;;;;;;4955022;28;20138;-75
2021/12/19 07:07:37;;;;;;;6.70;3.60;;;;;;;;;;4972084;28;20105;-74
2021/12/19 07:10:05;;;;;;;7.63;3.77;;;;;;;;;;4972068;28;20450;-73
2021/12/19 07:12:30;;;;;;;7.90;3.00;;;;;;;;;;4970582;28;20407;-74
2021/12/19 07:14:58;;;;;;;4.80;3.20;;;;;;;;;;4972224;28;20031;-73
2021/12/19 07:17:24;;;;;;;7.53;3.00;;;;;;;;;;4970642;28;20023;-74
2021/12/19 07:19:50;;;;;;;7.20;3.00;;;;;;;;;;4972003;28;20023;-73
2021/12/19 07:22:16;;;;;;;7.00;2.73;;;;;;;;;;4970672;28;20489;-74
2021/12/19 07:24:42;;;;;;;6.53;3.20;;;;;;;;;;4970583;28;20491;-75
2021/12/19 07:27:08;;;;;;;5.33;3.13;;;;;;;;;;4970564;28;20062;-74
2021/12/19 07:29:34;;;;;;;8.97;3.20;;;;;;;;;;4971818;28;20422;-74
2021/12/19 07:31:59;;;;;;;5.73;3.33;;;;;;;;;;4970574;28;20092;-73
2021/12/19 07:34:31;;;;;;;5.27;3.03;;;;;;;;;;4971661;28;20031;-75
2021/12/19 07:36:57;;;;;;;;;;;;;;;;;;4971416;28;20031;-74
2021/12/19 07:39:39;;;;;;;7.43;3.23;;;;;;;;;;4986514;28;19918;-74
2021/12/19 07:42:09;;;;;;;7.55;2.80;;;;;;;;;;4971840;28;20019;-74
2021/12/19 07:44:36;;;;;;;5.83;3.00;;;;;;;;;;4970238;28;20133;-74
2021/12/19 07:47:03;;;;;;;6.00;2.87;;;;;;;;;;4970038;28;20076;-74
2021/12/19 07:49:28;;;;;;;4.83;2.93;;;;;;;;;;4970179;28;20342;-74
2021/12/19 07:51:55;;;;;;;5.83;3.23;;;;;;;;;;4971380;28;20045;-73
2021/12/19 07:54:21;;;;;;;4.23;2.90;;;;;;;;;;4969745;28;20045;-73
2021/12/19 07:56:46;;;;;;;9.73;3.43;;;;;;;;;;4970269;28;20403;-74
2021/12/19 07:59:12;;;;;;;6.40;3.10;;;;;;;;;;4969830;28;20490;-74
2021/12/19 08:01:38;;;;;;;5.23;3.00;;;;;;;;;;4971524;28;20748;-74
2021/12/19 08:04:04;;;;;;;3.93;2.77;;;;;;;;;;4969913;28;20114;-74
2021/12/19 08:06:29;;;;;;;6.57;3.37;;;;;;;;;;4971225;28;20030;-73
2021/12/19 08:08:57;;;;;;;4.53;2.90;;;;;;;;;;4971504;28;20031;-74
2021/12/19 08:11:42;;;;;;;6.10;3.17;;;;;;;;;;4971834;28;20098;-74
2021/12/19 08:14:13;;;;;;;9.13;3.70;;;;;;;;;;4970222;28;20031;-73
2021/12/19 08:16:40;;;;;;;5.93;3.00;;;;;;;;;;4969622;28;20419;-74
2021/12/19 08:19:06;;;;;;;5.90;3.17;;;;;;;;;;4970171;28;20038;-74
2021/12/19 08:21:31;;;;;;;4.90;3.00;;;;;;;;;;4969867;28;20027;-73
2021/12/19 08:24:00;;;;;;;3.37;2.83;;;;;;;;;;4970103;28;20412;-74
2021/12/19 08:26:25;;;;;;;5.67;3.30;;;;;;;;;;4970230;28;20023;-74
2021/12/19 08:28:52;;;;;;;5.83;3.53;;;;;;;;;;4974414;28;20079;-74
2021/12/19 08:31:18;;;;;;;10.73;3.67;;;;;;;;;;4972846;28;20030;-74
2021/12/19 08:33:44;;;;;;;6.27;3.13;;;;;;;;;;4973569;28;20030;-74
2021/12/19 08:36:10;;;;;;;6.50;3.37;;;;;;;;;;4969647;28;20027;-74
2021/12/19 08:38:36;;;;;;;6.83;3.27;;;;;;;;;;4971215;28;20042;-74
2021/12/19 08:41:02;;;;;;;10.47;3.40;;;;;;;;;;4970923;28;20426;-75
2021/12/19 08:43:27;;;;;;;4.77;3.60;;;;;;;;;;4969732;28;20023;-74
2021/12/19 08:45:53;;;;;;;9.53;3.47;;;;;;;;;;4969734;28;20390;-73
2021/12/19 08:48:18;;;;;;;6.57;3.63;;;;;;;;;;4969503;28;20387;-74
2021/12/19 08:50:45;;;;;;;5.47;3.20;;;;;;;;;;4969508;28;20497;-74
2021/12/19 08:53:11;;;;;;;8.33;3.40;;;;;;;;;;4971352;28;20023;-74
2021/12/19 08:55:36;;;;;;;4.93;3.27;;;;;;;;;;4970986;28;20033;-74
2021/12/19 08:58:02;;;;;;;7.03;3.43;;;;;;;;;;4971194;28;20329;-74
2021/12/19 09:00:28;;;;;;;5.20;3.33;;;;;;;;;;4974574;28;20026;-74
2021/12/19 09:02:55;;;;;;;6.87;3.97;;;;;;;;;;4974828;28;20098;-74
2021/12/19 09:05:23;;;;;;;7.03;3.73;;;;;;;;;;4972998;28;20721;-73
2021/12/19 09:07:50;;;;;;;4.43;3.00;;;;;;;;;;4974619;28;20035;-73
2021/12/19 09:10:16;;;;;;;7.63;4.07;;;;;;;;;;4974008;28;20431;-75
2021/12/19 09:12:42;;;;;;;7.13;3.23;;;;;;;;;;4974360;28;20042;-73
2021/12/19 09:15:07;;;;;;;4.13;2.73;;;;;;;;;;4974533;28;20054;-74
2021/12/19 09:17:33;;;;;;;5.83;3.37;;;;;;;;;;4974222;28;20023;-74
2021/12/19 09:19:58;;;;;;;7.47;3.47;;;;;;;;;;4974811;28;20030;-73
2021/12/19 09:22:24;;;;;;;6.10;3.87;;;;;;;;;;4974230;28;20391;-74
2021/12/19 09:24:49;;;;;;;7.27;3.40;;;;;;;;;;4974695;28;20475;-73
2021/12/19 09:27:15;;;;;;;5.50;3.27;;;;;;;;;;4973400;28;20434;-74
2021/12/19 09:29:41;;;;;;;5.43;3.50;;;;;;;;;;4974232;28;20022;-74
2021/12/19 09:32:06;;;;;;;5.63;3.50;;;;;;;;;;4975891;28;20444;-74
2021/12/19 09:34:32;;;;;;;5.50;3.10;;;;;;;;;;4973778;28;20399;-74
2021/12/19 09:36:58;;;;;;;5.93;3.33;;;;;;;;;;4975535;28;20117;-75
2021/12/19 09:39:25;;;;;;;8.50;3.50;;;;;;;;;;4974129;28;20499;-74
2021/12/19 09:42:01;;;;;;;6.37;3.00;;;;;;;;;;4975608;28;20026;-74
2021/12/19 09:44:29;;;;;;;5.07;2.77;;;;;;;;;;4974361;28;20030;-73
2021/12/19 09:46:54;;;;;;;6.63;3.53;;;;;;;;;;4974139;28;20031;-74
2021/12/19 09:49:21;;;;;;;7.93;3.07;;;;;;;;;;4973608;28;20093;-75
2021/12/19 09:51:48;;;;;;;4.90;3.03;;;;;;;;;;4973040;28;20428;-75
2021/12/19 09:54:15;;;;;;;5.20;3.40;;;;;;;;;;4972312;28;20039;-75
2021/12/19 09:56:42;;;;;;;4.73;3.57;;;;;;;;;;4973799;28;20038;-74
2021/12/19 09:59:14;;;;;;;5.07;3.00;;;;;;;;;;4972716;28;20447;-75
2021/12/19 10:01:40;;;;;;;;;;;;;;;;;;4974183;28;20113;-74
2021/12/19 10:04:34;;;;;;;6.10;3.47;;;;;;;;;;4972172;28;20009;-75
2021/12/19 10:07:30;;;;;;;5.40;3.40;;;;;;;;;;4972735;28;20034;-73
2021/12/19 10:10:23;;;;;;;5.70;3.27;;;;;;;;;;4971523;28;20491;-73
2021/12/19 10:12:52;;;;;;;7.40;3.73;;;;;;;;;;4972185;28;20082;-75
2021/12/19 10:15:26;;;;;;;5.53;3.43;;;;;;;;;;4972026;28;20031;-75
2021/12/19 10:18:03;;;;;;;8.53;4.40;;;;;;;;;;4973461;28;20339;-74
2021/12/19 10:20:40;;;;;;;8.27;3.47;;;;;;;;;;4971941;28;20398;-74
2021/12/19 10:23:26;;;;;;;6.47;4.23;;;;;;;;;;4973637;28;20086;-75
2021/12/19 10:25:58;;;;;;;6.80;3.83;;;;;;;;;;4973818;28;20035;-74
2021/12/19 10:28:24;;;;;;;4.93;2.95;;;;;;;;;;4973610;28;20472;-74
2021/12/19 10:30:50;;;;;;;6.77;3.20;;;;;;;;;;4973372;28;20050;-73
2021/12/19 10:33:19;;;;;;;7.17;4.00;;;;;;;;;;4972017;28;20065;-74
2021/12/19 10:35:50;;;;;;;8.17;3.90;;;;;;;;;;4971993;28;20023;-75
2021/12/19 10:38:31;;;;;;;9.93;3.27;;;;;;;;;;4971478;28;20066;-74
2021/12/19 10:41:03;;;;;;;5.45;3.58;;;;;;;;;;4973436;28;20027;-76
2021/12/19 10:43:32;;;;;;;7.03;3.72;;;;;;;;;;4971510;28;20027;-75
2021/12/19 10:46:07;;;;;;;9.67;4.10;;;;;;;;;;4973039;28;20042;-74
2021/12/19 10:48:39;;;;;;;7.97;3.67;;;;;;;;;;4971586;28;20030;-73
2021/12/19 10:51:15;;;;;;;;;;;;;;;;;;4971938;28;20030;-73
2021/12/19 10:53:44;;;;;;;6.53;3.60;;;;;;;;;;4972526;28;19992;-74
2021/12/19 10:56:15;;;;;;;11.27;4.10;;;;;;;;;;4972575;28;20506;-74
2021/12/19 10:58:56;;;;;;;5.30;3.77;;;;;;;;;;4971347;28;20023;-74
2021/12/19 11:01:25;;;;;;;9.20;4.30;;;;;;;;;;4972175;28;20464;-75
2021/12/19 11:04:10;;;;;;;6.60;3.93;;;;;;;;;;4970829;28;20035;-73
2021/12/19 11:06:47;;;;;;;5.70;3.60;;;;;;;;;;4972480;28;20035;-75
2021/12/19 11:09:20;;;;;;;9.30;3.77;;;;;;;;;;4972978;28;20027;-76
2021/12/19 11:11:54;;;;;;;7.00;3.73;;;;;;;;;;4970917;28;20029;-74
2021/12/19 11:14:25;;;;;;;6.63;3.73;;;;;;;;;;4970811;28;20038;-75
2021/12/19 11:16:57;;;;;;;8.40;4.20;;;;;;;;;;4972321;28;20031;-75
2021/12/19 11:19:23;;;;;;;6.28;3.97;;;;;;;;;;4970679;28;20037;-74
2021/12/19 11:21:49;;;;;;;5.73;3.57;;;;;;;;;;4972114;28;20027;-75
2021/12/19 11:24:16;;;;;;;9.70;4.03;;;;;;;;;;4972158;28;20483;-75
2021/12/19 11:26:45;;;;;;;6.80;4.00;;;;;;;;;;4970746;28;20498;-74
2021/12/19 11:29:12;;;;;;;8.80;4.63;;;;;;;;;;4972070;28;20114;-75
2021/12/19 11:31:41;;;;;;;8.57;4.20;;;;;;;;;;4970950;28;20122;-74
2021/12/19 11:34:23;;;;;;;8.53;3.77;;;;;;;;;;4971998;28;20113;-74
2021/12/19 11:36:55;;;;;;;8.93;4.13;;;;;;;;;;4970541;28;20057;-74
2021/12/19 11:39:33;;;;;;;6.82;3.83;;;;;;;;;;4969982;28;20050;-74
2021/12/19 11:42:16;;;;;;;8.47;4.23;;;;;;;;;;4970547;28;20034;-74
2021/12/19 11:47:37;;;;;;;7.13;4.40;;;;;;;;;;4971645;28;20480;-74
2021/12/19 11:50:28;;;;;;;9.47;4.43;;;;;;;;;;4970262;28;20030;-75
2021/12/19 11:53:12;;;;;;;6.30;3.80;;;;;;;;;;4970318;28;20026;-75
2021/12/19 11:55:37;;;;;;;6.97;4.30;;;;;;;;;;4971967;28;20161;-74
2021/12/19 11:58:09;;;;;;;7.87;4.20;;;;;;;;;;4972293;28;20105;-75
2021/12/19 12:00:37;;;;;;;6.70;4.03;;;;;;;;;;4970705;28;20018;-74
2021/12/19 12:03:30;;;;;;;5.90;4.10;;;;;;;;;;4971543;28;20031;-74
2021/12/19 12:05:58;;;;;;;8.67;5.43;;;;;;;;;;4970674;28;20082;-74
2021/12/19 12:08:26;;;;;;;9.57;4.93;;;;;;;;;;4969985;28;20095;-74
2021/12/19 12:10:59;;;;;;;8.97;4.43;;;;;;;;;;4971508;28;20431;-74
2021/12/19 12:13:25;;;;;;;6.20;3.97;;;;;;;;;;4970048;28;20026;-74
2021/12/19 12:15:59;;;;;;;9.00;4.90;;;;;;;;;;4969863;28;20451;-73
2021/12/19 12:18:29;;;;;;;6.27;3.87;;;;;;;;;;4970037;28;20023;-74
2021/12/19 12:20:55;;;;;;;9.33;5.07;;;;;;;;;;4971487;28;20030;-74
2021/12/19 12:23:30;;;;;;;6.40;4.13;;;;;;;;;;4971610;28;20105;-74
2021/12/19 12:25:56;;;;;;;9.43;4.50;;;;;;;;;;4971455;28;20054;-74
2021/12/19 12:28:21;;;;;;;7.60;4.27;;;;;;;;;;4971129;28;20101;-73
2021/12/19 12:30:52;;;;;;;9.70;4.50;;;;;;;;;;4970124;28;20050;-73
2021/12/19 12:33:20;;;;;;;5.70;3.93;;;;;;;;;;4970643;28;20471;-73
2021/12/19 12:35:49;;;;;;;9.23;4.40;;;;;;;;;;4973518;28;20027;-74
2021/12/19 12:38:16;;;;;;;7.97;4.00;;;;;;;;;;4975222;28;20493;-73
2021/12/19 12:41:01;;;;;;;6.70;4.20;;;;;;;;;;4974029;28;20026;-73
2021/12/19 12:43:30;;;;;;;9.53;4.67;;;;;;;;;;4975441;28;20550;-73
2021/12/19 12:46:03;;;;;;;9.60;4.33;;;;;;;;;;4973910;28;20030;-74
2021/12/19 12:48:33;;;;;;;9.93;4.47;;;;;;;;;;4974645;28;20026;-74
2021/12/19 12:51:00;;;;;;;9.00;4.30;;;;;;;;;;4973391;28;20118;-75
2021/12/19 12:53:31;;;;;;;8.43;4.33;;;;;;;;;;4974691;28;20031;-74
2021/12/19 12:56:20;;;;;;;7.53;4.43;;;;;;;;;;4973583;28;20022;-76
2021/12/19 12:58:52;;;;;;;7.23;4.90;;;;;;;;;;4957545;28;20391;-76
2021/12/19 13:01:21;;;;;;;;;;;;;;;;;;4957671;28;20428;-75
2021/12/19 13:03:56;;;;;;;8.43;4.90;;;;;;;;;;4972823;28;19910;-75
2021/12/19 13:06:56;;;;;;;8.33;4.50;;;;;;;;;;4974612;28;20046;-74
2021/12/19 13:09:30;;;;;;;7.73;4.57;;;;;;;;;;4973399;28;20039;-73
2021/12/19 13:12:00;;;;;;;7.73;4.30;;;;;;;;;;4974784;28;20038;-74
2021/12/19 13:14:29;;;;;;;6.83;4.27;;;;;;;;;;4972938;28;20496;-74
2021/12/19 13:16:57;;;;;;;6.97;4.07;;;;;;;;;;4973362;28;20030;-76
2021/12/19 13:19:51;;;;;;;7.60;3.93;;;;;;;;;;4974648;28;20055;-74
2021/12/19 13:22:18;;;;;;;6.00;3.77;;;;;;;;;;4973018;28;20590;-75
2021/12/19 13:24:45;;;;;;;6.97;3.70;;;;;;;;;;4972881;28;20077;-73
2021/12/19 13:27:12;;;;;;;7.67;4.37;;;;;;;;;;4974932;28;20027;-75
2021/12/19 13:29:39;;;;;;;7.80;3.63;;;;;;;;;;4974447;28;20035;-75
2021/12/19 13:32:29;;;;;;;7.77;3.77;;;;;;;;;;4974852;28;20069;-73
2021/12/19 13:34:56;;;;;;;6.40;4.47;;;;;;;;;;4974994;28;20110;-75
2021/12/19 13:37:23;;;;;;;9.67;3.60;;;;;;;;;;4974784;28;20019;-73
2021/12/19 13:40:12;;;;;;;5.63;3.70;;;;;;;;;;4975803;28;20053;-73
2021/12/19 13:42:39;;;;;;;7.50;4.50;;;;;;;;;;4974806;28;20023;-74
2021/12/19 13:45:25;;;;;;;6.87;3.90;;;;;;;;;;4974115;28;20026;-73
2021/12/19 13:47:52;;;;;;;7.13;4.33;;;;;;;;;;4976455;28;20538;-73
2021/12/19 13:50:17;;;;;;;9.80;4.30;;;;;;;;;;4957759;28;20034;-76
2021/12/19 13:52:43;;;;;;;5.70;3.97;;;;;;;;;;4973782;28;20034;-74
2021/12/19 13:55:11;;;;;;;7.60;4.23;;;;;;;;;;4973820;28;20042;-76
2021/12/19 13:57:36;;;;;;;7.43;4.23;;;;;;;;;;4972133;28;20457;-74
2021/12/19 14:00:06;;;;;;;5.90;4.10;;;;;;;;;;4972886;28;20292;-77
2021/12/19 14:02:36;;;;;;;7.07;3.97;;;;;;;;;;4972209;28;20035;-76
2021/12/19 14:05:03;;;;;;;10.33;5.83;;;;;;;;;;4956015;28;20027;-75
2021/12/19 14:07:29;;;;;;;4.17;3.23;;;;;;;;;;4973364;28;20507;-74
2021/12/19 14:10:02;;;;;;;6.40;3.80;;;;;;;;;;4973634;28;20030;-76
2021/12/19 14:12:53;;;;;;;5.83;3.37;;;;;;;;;;4973475;28;20027;-76
2021/12/19 14:15:17;;;;;;;5.80;3.70;;;;;;;;;;4973212;28;20050;-75
2021/12/19 14:17:44;;;;;;;6.40;4.00;;;;;;;;;;4971905;28;20105;-76
2021/12/19 14:20:10;;;;;;;7.20;3.57;;;;;;;;;;4972456;28;20557;-75
2021/12/19 14:22:36;;;;;;;5.70;3.10;;;;;;;;;;4971892;28;20030;-75
2021/12/19 14:25:03;;;;;;;6.93;3.47;;;;;;;;;;4973460;28;20043;-75
2021/12/19 14:27:36;;;;;;;5.60;3.40;;;;;;;;;;4972012;28;20047;-74
2021/12/19 14:30:11;;;;;;;5.07;3.13;;;;;;;;;;4973237;28;20023;-75
2021/12/19 14:32:48;;;;;;;7.20;3.53;;;;;;;;;;4972154;28;20076;-75
2021/12/19 14:35:23;;;;;;;5.13;2.90;;;;;;;;;;4973566;28;20027;-75
2021/12/19 14:37:51;;;;;;;4.47;2.90;;;;;;;;;;4971745;28;20041;-75
2021/12/19 14:40:25;;;;;;;6.47;3.40;;;;;;;;;;4971913;28;20134;-75
2021/12/19 14:43:10;;;;;;;5.60;3.63;;;;;;;;;;4973114;28;20030;-73
2021/12/19 14:45:51;;;;;;;5.80;3.10;;;;;;;;;;4971464;28;20490;-75
2021/12/19 14:48:30;;;;;;;4.23;2.60;;;;;;;;;;4973051;28;20058;-75
2021/12/19 14:50:59;;;;;;;7.33;3.20;;;;;;;;;;4972874;28;20023;-75
2021/12/19 14:53:31;;;;;;;6.67;3.67;;;;;;;;;;4971487;28;20047;-76
2021/12/19 14:56:14;;;;;;;9.32;3.55;;;;;;;;;;4970418;28;20116;-74
2021/12/19 14:58:54;;;;;;;6.23;3.10;;;;;;;;;;4971346;28;20023;-73
2021/12/19 15:01:22;;;;;;;6.13;3.83;;;;;;;;;;4971588;28;20038;-73
2021/12/19 15:03:58;;;;;;;7.40;3.57;;;;;;;;;;4971747;28;20443;-74
2021/12/19 15:06:25;;;;;;;6.83;3.37;;;;;;;;;;4971725;28;20030;-75
2021/12/19 15:08:55;;;;;;;6.37;3.97;;;;;;;;;;4972808;28;20378;-74
2021/12/19 15:11:21;;;;;;;5.67;3.07;;;;;;;;;;4971620;28;20019;-74
2021/12/19 15:13:48;;;;;;;5.10;3.23;;;;;;;;;;4973092;28;20094;-74
2021/12/19 15:16:14;;;;;;;4.80;2.97;;;;;;;;;;4971386;28;20442;-75
2021/12/19 15:18:44;;;;;;;4.50;3.33;;;;;;;;;;4971378;28;20081;-75
2021/12/19 15:21:10;;;;;;;5.20;3.83;;;;;;;;;;4975298;28;20031;-73
2021/12/19 15:23:35;;;;;;;4.90;3.00;;;;;;;;;;4975414;28;20097;-74
2021/12/19 15:26:03;;;;;;;6.80;3.57;;;;;;;;;;4974860;28;20545;-74
2021/12/19 15:28:28;;;;;;;6.03;3.23;;;;;;;;;;4974586;28;20054;-73
2021/12/19 15:30:58;;;;;;;4.40;2.60;;;;;;;;;;4971445;28;20483;-74
2021/12/19 15:33:25;;;;;;;7.77;3.50;;;;;;;;;;4971262;28;20022;-75
2021/12/19 15:35:51;;;;;;;4.07;3.57;;;;;;;;;;4972446;28;20069;-74
2021/12/19 15:38:17;;;;;;;7.90;3.47;;;;;;;;;;4970838;28;20054;-75
2021/12/19 15:40:43;;;;;;;6.10;3.13;;;;;;;;;;4970563;28;20022;-75
2021/12/19 15:43:10;;;;;;;9.97;3.70;;;;;;;;;;4971010;28;20022;-76
2021/12/19 15:45:36;;;;;;;5.90;4.30;;;;;;;;;;4970796;28;20018;-73
2021/12/19 15:48:03;;;;;;;4.70;3.20;;;;;;;;;;4972235;28;20365;-74
2021/12/19 15:50:30;;;;;;;6.47;3.83;;;;;;;;;;4970565;28;20510;-75
2021/12/19 15:52:55;;;;;;;4.93;3.33;;;;;;;;;;4970273;28;20030;-75
2021/12/19 15:55:21;;;;;;;4.10;2.77;;;;;;;;;;4954156;28;20387;-74
2021/12/19 15:57:47;;;;;;;8.67;4.83;;;;;;;;;;4971880;28;20082;-74
2021/12/19 16:00:17;;;;;;;9.90;4.27;;;;;;;;;;4971125;28;20043;-74
2021/12/19 16:02:43;;;;;;;5.00;3.80;;;;;;;;;;4969830;28;20046;-74
2021/12/19 16:05:10;;;;;;;8.07;3.53;;;;;;;;;;4971626;28;20113;-73
2021/12/19 16:07:36;;;;;;;6.17;3.23;;;;;;;;;;4971473;28;20483;-74
2021/12/19 16:10:04;;;;;;;6.73;3.83;;;;;;;;;;4972105;28;20114;-74